Time;durP1;ratioP1;P1;durP2;ratioP2;P2;SDS_P1;SDS_P2;PMS_P1;PMS_P2;Temp;Humidity;BMP_temperature;BMP_pressure;BME280_temperature;BME280_humidity;BME280_pressure;Samples;Min_cycle;Max_cycle;Signal;HPM_P1;HPM_P2
2022/09/16 00:00:59;;;;;;;0.00;0.00;;;11.50;99.90;;;;;;4959727;28;21046;-87
2022/09/16 00:03:27;;;;;;;0.00;0.00;;;11.40;99.90;;;;;;4960098;29;20532;-86
2022/09/16 00:05:55;;;;;;;0.00;0.00;;;11.40;99.90;;;;;;4958442;29;20444;-86
2022/09/16 00:08:25;;;;;;;0.00;0.00;;;11.30;99.90;;;;;;4959868;28;20932;-86
2022/09/16 00:10:52;;;;;;;0.00;0.00;;;11.30;99.90;;;;;;4960462;29;20468;-87
2022/09/16 00:13:20;;;;;;;0.00;0.00;;;11.30;99.90;;;;;;4960852;29;20200;-87
2022/09/16 00:15:50;;;;;;;0.00;0.00;;;11.30;99.90;;;;;;4960978;29;20441;-85
2022/09/16 00:18:19;;;;;;;0.00;0.00;;;11.20;99.90;;;;;;4960273;29;20424;-87
2022/09/16 00:20:48;;;;;;;0.00;0.00;;;11.20;99.90;;;;;;4960186;29;20543;-85
2022/09/16 00:23:17;;;;;;;0.00;0.00;;;11.20;99.90;;;;;;4960436;29;20489;-86
2022/09/16 00:25:52;;;;;;;0.00;0.00;;;11.30;99.90;;;;;;4960035;28;20453;-86
2022/09/16 00:28:20;;;;;;;0.00;0.00;;;11.30;99.90;;;;;;4961376;29;20437;-86
2022/09/16 00:30:48;;;;;;;0.00;0.00;;;11.30;99.90;;;;;;4960705;29;20469;-86
2022/09/16 00:33:17;;;;;;;0.00;0.00;;;11.40;99.90;;;;;;4960890;29;20495;-87
2022/09/16 00:35:45;;;;;;;0.00;0.00;;;11.40;99.90;;;;;;4960195;29;20821;-86
2022/09/16 00:38:13;;;;;;;0.00;0.00;;;11.40;99.90;;;;;;4960189;29;20433;-86
2022/09/16 00:40:45;;;;;;;0.00;0.00;;;11.50;99.90;;;;;;4960612;29;20469;-85
2022/09/16 00:43:14;;;;;;;0.00;0.00;;;11.70;99.90;;;;;;4960364;28;20473;-85
2022/09/16 00:45:44;;;;;;;0.00;0.00;;;11.80;99.90;;;;;;4959959;28;20466;-85
2022/09/16 00:48:18;;;;;;;0.00;0.00;;;11.90;99.90;;;;;;4960103;29;20453;-85
2022/09/16 00:50:50;;;;;;;0.00;0.00;;;11.90;99.90;;;;;;4960024;29;20472;-86
2022/09/16 00:53:22;;;;;;;0.00;0.00;;;12.00;99.90;;;;;;4960235;29;20452;-86
2022/09/16 00:55:53;;;;;;;0.00;0.00;;;12.00;99.90;;;;;;4966560;28;20463;-86
2022/09/16 00:58:26;;;;;;;0.00;0.00;;;12.00;99.90;;;;;;4983836;28;20483;-83
2022/09/16 01:00:54;;;;;;;0.00;0.00;;;12.00;99.90;;;;;;4995476;28;20455;-85
2022/09/16 01:03:24;;;;;;;0.00;0.00;;;12.00;99.90;;;;;;4985835;28;20522;-85
2022/09/16 01:05:52;;;;;;;0.00;0.00;;;11.90;99.90;;;;;;4979724;28;20507;-85
2022/09/16 01:08:20;;;;;;;0.00;0.00;;;11.90;99.90;;;;;;4979522;28;20503;-85
2022/09/16 01:10:47;;;;;;;0.00;0.00;;;11.90;99.90;;;;;;4979826;28;20520;-85
2022/09/16 01:13:16;;;;;;;0.00;0.00;;;12.00;99.90;;;;;;4979155;28;20954;-85
2022/09/16 01:15:53;;;;;;;0.00;0.00;;;12.10;99.90;;;;;;4979669;28;21001;-86
2022/09/16 01:18:30;;;;;;;0.00;0.00;;;12.10;99.90;;;;;;4978798;28;20495;-84
2022/09/16 01:21:25;;;;;;;0.00;0.00;;;12.10;99.90;;;;;;4978474;28;20887;-86
2022/09/16 01:24:08;;;;;;;0.00;0.00;;;12.00;99.90;;;;;;4978577;28;20468;-86
2022/09/16 01:27:12;;;;;;;0.00;0.00;;;12.00;99.90;;;;;;4979025;28;20432;-86
2022/09/16 01:30:00;;;;;;;0.00;0.00;;;12.00;99.90;;;;;;4979324;28;20494;-86
2022/09/16 01:32:36;;;;;;;0.00;0.00;;;12.00;99.90;;;;;;4979027;28;20428;-85
2022/09/16 01:35:09;;;;;;;0.00;0.00;;;11.90;99.90;;;;;;4978785;28;20451;-86
2022/09/16 01:37:47;;;;;;;0.00;0.00;;;11.80;99.90;;;;;;4980997;28;20452;-86
2022/09/16 01:40:19;;;;;;;0.00;0.00;;;11.80;99.90;;;;;;4982348;28;20463;-86
2022/09/16 01:42:57;;;;;;;0.00;0.00;;;11.80;99.90;;;;;;4981487;28;20846;-86
2022/09/16 01:45:34;;;;;;;0.00;0.00;;;11.90;99.90;;;;;;4982779;28;20424;-85
2022/09/16 01:48:10;;;;;;;0.00;0.00;;;11.90;99.90;;;;;;4983876;28;20432;-86
2022/09/16 01:50:43;;;;;;;0.00;0.00;;;11.90;99.90;;;;;;4983287;28;20459;-86
2022/09/16 01:53:15;;;;;;;0.00;0.00;;;11.80;99.90;;;;;;4981739;28;20440;-85
2022/09/16 01:55:54;;;;;;;0.00;0.00;;;11.70;99.90;;;;;;4980254;28;20437;-86
2022/09/16 01:58:26;;;;;;;0.00;0.00;;;11.60;99.90;;;;;;4982586;28;20448;-86
2022/09/16 02:00:59;;;;;;;0.00;0.00;;;11.50;99.90;;;;;;4981101;28;20526;-85
2022/09/16 02:03:33;;;;;;;0.00;0.00;;;11.40;99.90;;;;;;4993518;28;20475;-86
2022/09/16 02:06:05;;;;;;;0.00;0.00;;;11.30;99.90;;;;;;4984665;28;20420;-86
2022/09/16 02:08:37;;;;;;;0.00;0.00;;;11.30;99.90;;;;;;4983052;28;20486;-86
2022/09/16 02:11:10;;;;;;;0.00;0.00;;;11.20;99.90;;;;;;4982142;28;20464;-86
2022/09/16 02:13:41;;;;;;;0.00;0.00;;;11.20;99.90;;;;;;4980596;28;20424;-86
2022/09/16 02:19:25;;;;;;;0.00;0.00;;;11.10;99.90;;;;;;5868834;23;20544;-87
2022/09/16 02:21:57;;;;;;;0.00;0.00;;;11.10;99.90;;;;;;5013136;28;20516;-87
2022/09/16 02:24:28;;;;;;;0.00;0.00;;;11.00;99.90;;;;;;5015961;28;21246;-87
2022/09/16 02:26:59;;;;;;;0.00;0.00;;;10.90;99.90;;;;;;5016737;28;20426;-87
2022/09/16 02:29:31;;;;;;;0.00;0.00;;;10.90;99.90;;;;;;5015703;28;20473;-87
2022/09/16 02:32:02;;;;;;;0.00;0.00;;;11.00;99.90;;;;;;5017325;28;20807;-86
2022/09/16 02:34:34;;;;;;;0.00;0.00;;;11.00;99.90;;;;;;5020156;28;20426;-87
2022/09/16 02:37:08;;;;;;;0.00;0.00;;;11.00;99.90;;;;;;5020363;28;20450;-86
2022/09/16 02:39:39;;;;;;;0.00;0.00;;;11.00;99.90;;;;;;5021427;28;20426;-87
2022/09/16 02:42:07;;;;;;;0.00;0.00;;;11.10;99.90;;;;;;5020193;28;20438;-86
2022/09/16 02:44:36;;;;;;;0.00;0.00;;;11.20;99.90;;;;;;5020402;28;20476;-86
2022/09/16 02:47:12;;;;;;;0.00;0.00;;;11.40;99.90;;;;;;5005216;28;20478;-87
2022/09/16 02:49:48;;;;;;;0.00;0.00;;;11.50;99.90;;;;;;5001479;28;20450;-87
2022/09/16 02:52:25;;;;;;;0.00;0.00;;;11.50;99.90;;;;;;5007992;28;20419;-86
2022/09/16 02:54:56;;;;;;;0.00;0.00;;;11.40;99.90;;;;;;5000751;28;20847;-86
2022/09/16 02:57:24;;;;;;;0.00;0.00;;;11.40;99.90;;;;;;5000890;28;20772;-86
2022/09/16 02:59:51;;;;;;;0.00;0.00;;;11.40;99.90;;;;;;5001364;28;20479;-87
2022/09/16 03:02:20;;;;;;;0.00;0.00;;;11.40;99.90;;;;;;5001096;28;20463;-88
2022/09/16 03:04:48;;;;;;;0.00;0.00;;;11.50;99.90;;;;;;5018232;28;20462;-86
2022/09/16 03:07:18;;;;;;;0.00;0.00;;;11.50;99.90;;;;;;5000951;28;20431;-86
2022/09/16 03:09:48;;;;;;;0.00;0.00;;;11.40;99.90;;;;;;4999246;28;20435;-86
2022/09/16 03:12:41;;;;;;;0.00;0.00;;;11.40;99.90;;;;;;5000367;28;20436;-86
2022/09/16 03:15:28;;;;;;;0.00;0.00;;;11.50;99.90;;;;;;5000550;28;20454;-87
2022/09/16 03:18:21;;;;;;;0.00;0.00;;;11.60;99.90;;;;;;4999614;28;20541;-88
2022/09/16 03:20:56;;;;;;;0.00;0.00;;;11.60;99.90;;;;;;4999542;28;20521;-87
2022/09/16 03:23:44;;;;;;;0.00;0.00;;;11.60;99.90;;;;;;4999397;28;20423;-85
2022/09/16 03:26:20;;;;;;;0.00;0.00;;;11.60;99.90;;;;;;4998972;28;20415;-86
2022/09/16 03:28:57;;;;;;;0.00;0.00;;;11.40;99.90;;;;;;4997859;28;20879;-86
2022/09/16 03:31:28;;;;;;;0.00;0.00;;;11.30;99.90;;;;;;4998414;28;20466;-86
2022/09/16 03:34:04;;;;;;;0.00;0.00;;;11.20;99.90;;;;;;4997537;28;20431;-86
2022/09/16 03:36:35;;;;;;;0.00;0.00;;;11.10;99.90;;;;;;4997812;28;20566;-87
2022/09/16 03:39:05;;;;;;;0.00;0.00;;;11.00;99.90;;;;;;4998518;28;20554;-86
2022/09/16 03:41:34;;;;;;;0.00;0.00;;;11.00;99.90;;;;;;4999146;28;20459;-86
2022/09/16 03:44:02;;;;;;;0.00;0.00;;;10.90;99.90;;;;;;4997614;28;20541;-87
2022/09/16 03:46:32;;;;;;;0.00;0.00;;;10.80;99.90;;;;;;4998917;28;20451;-86
2022/09/16 03:49:00;;;;;;;0.00;0.00;;;10.90;99.90;;;;;;4999142;28;20442;-87
2022/09/16 03:51:28;;;;;;;0.00;0.00;;;10.80;99.90;;;;;;4998817;28;20474;-87
2022/09/16 03:53:56;;;;;;;0.00;0.00;;;10.80;99.90;;;;;;4998391;28;20454;-87
2022/09/16 03:56:25;;;;;;;0.00;0.00;;;10.70;99.90;;;;;;4998982;28;20945;-86
2022/09/16 03:58:54;;;;;;;0.00;0.00;;;10.80;99.90;;;;;;4999023;28;20431;-84
2022/09/16 04:01:22;;;;;;;0.00;0.00;;;10.80;99.90;;;;;;5000069;28;20545;-86
2022/09/16 04:03:51;;;;;;;0.00;0.00;;;10.80;99.90;;;;;;5000706;28;20509;-86
2022/09/16 04:06:19;;;;;;;0.00;0.00;;;10.90;99.90;;;;;;5001026;28;20489;-86
2022/09/16 04:08:49;;;;;;;0.00;0.00;;;11.00;99.90;;;;;;5007903;28;20466;-86
2022/09/16 04:11:17;;;;;;;0.00;0.00;;;11.10;99.90;;;;;;4998488;28;20992;-87
2022/09/16 04:13:46;;;;;;;0.00;0.00;;;11.20;99.90;;;;;;4998938;28;20459;-86
2022/09/16 04:16:19;;;;;;;0.00;0.00;;;11.30;99.90;;;;;;4998434;28;20435;-85
2022/09/16 04:18:48;;;;;;;0.00;0.00;;;11.30;99.90;;;;;;4998663;28;20855;-86
2022/09/16 04:21:19;;;;;;;0.00;0.00;;;11.20;99.90;;;;;;4998434;28;21035;-84
2022/09/16 04:23:48;;;;;;;0.00;0.00;;;11.20;99.90;;;;;;4999616;28;20563;-85
2022/09/16 04:26:16;;;;;;;0.00;0.00;;;11.10;99.90;;;;;;4999074;28;20475;-85
2022/09/16 04:28:46;;;;;;;0.00;0.00;;;11.00;99.90;;;;;;4998446;28;20819;-86
2022/09/16 04:31:15;;;;;;;0.00;0.00;;;11.00;99.90;;;;;;4998167;28;20478;-85
2022/09/16 04:33:43;;;;;;;0.00;0.00;;;10.90;99.90;;;;;;4999378;28;20199;-85
2022/09/16 04:36:13;;;;;;;0.00;0.00;;;10.80;99.90;;;;;;5001870;28;20198;-86
2022/09/16 04:38:42;;;;;;;0.00;0.00;;;10.80;99.90;;;;;;5018093;28;20458;-85
2022/09/16 04:41:14;;;;;;;0.00;0.00;;;10.70;99.90;;;;;;5018669;28;20219;-89
2022/09/16 04:43:46;;;;;;;0.00;0.00;;;10.70;99.90;;;;;;5019122;28;20884;-88
2022/09/16 04:46:15;;;;;;;0.00;0.00;;;10.70;99.90;;;;;;5017816;28;21084;-86
2022/09/16 04:48:43;;;;;;;0.00;0.00;;;10.70;99.90;;;;;;5017863;28;20270;-86
2022/09/16 04:51:12;;;;;;;0.00;0.00;;;10.70;99.90;;;;;;5017501;28;20227;-87
2022/09/16 04:53:42;;;;;;;0.00;0.00;;;10.70;99.90;;;;;;4997790;28;20502;-86
2022/09/16 04:56:14;;;;;;;0.00;0.00;;;10.70;99.90;;;;;;5000668;28;20203;-86
2022/09/16 04:58:43;;;;;;;0.00;0.00;;;10.70;99.90;;;;;;4998589;28;20798;-86
2022/09/16 05:01:14;;;;;;;0.00;0.00;;;10.70;99.90;;;;;;4998204;28;20973;-85
2022/09/16 05:03:43;;;;;;;0.00;0.00;;;10.80;99.90;;;;;;4998700;28;20422;-86
2022/09/16 05:06:14;;;;;;;0.00;0.00;;;11.00;99.90;;;;;;4998762;28;20929;-86
2022/09/16 05:08:47;;;;;;;0.00;0.00;;;11.10;99.90;;;;;;5004900;28;20442;-86
2022/09/16 05:11:17;;;;;;;0.00;0.00;;;11.10;99.90;;;;;;5011572;28;20473;-85
2022/09/16 05:13:46;;;;;;;0.00;0.00;;;11.10;99.90;;;;;;4998638;28;20450;-88
2022/09/16 05:16:17;;;;;;;0.00;0.00;;;11.20;99.90;;;;;;4997891;28;20451;-86
2022/09/16 05:18:47;;;;;;;0.00;0.00;;;11.20;99.90;;;;;;4998685;28;20427;-85
2022/09/16 05:21:17;;;;;;;0.00;0.00;;;11.20;99.90;;;;;;4997996;28;20593;-87
2022/09/16 05:23:46;;;;;;;0.00;0.00;;;11.10;99.90;;;;;;4997638;28;20442;-86
2022/09/16 05:26:16;;;;;;;0.00;0.00;;;11.10;99.90;;;;;;4997934;28;20594;-86
2022/09/16 05:28:44;;;;;;;0.00;0.00;;;11.00;99.90;;;;;;4998623;28;20191;-86
2022/09/16 05:31:17;;;;;;;0.00;0.00;;;11.00;99.90;;;;;;4998147;28;20255;-87
2022/09/16 05:33:47;;;;;;;0.00;0.00;;;11.00;99.90;;;;;;5002182;28;20451;-87
2022/09/16 05:36:17;;;;;;;0.00;0.00;;;10.90;99.90;;;;;;5002555;28;20211;-87
2022/09/16 05:38:47;;;;;;;0.00;0.00;;;11.00;99.90;;;;;;5000506;28;20840;-88
2022/09/16 05:41:37;;;;;;;0.00;0.00;;;11.00;99.90;;;;;;5003061;28;20489;-87
2022/09/16 05:44:06;;;;;;;0.00;0.00;;;11.00;99.90;;;;;;5018017;28;20433;-87
2022/09/16 05:46:36;;;;;;;0.00;0.00;;;11.20;99.90;;;;;;4997451;28;20902;-87
2022/09/16 05:49:04;;;;;;;0.00;0.00;;;11.40;99.90;;;;;;4999107;28;20439;-86
2022/09/16 05:51:31;;;;;;;0.00;0.00;;;11.40;99.90;;;;;;4997841;28;20541;-86
2022/09/16 05:54:00;;;;;;;0.00;0.00;;;11.40;99.90;;;;;;4996865;28;20466;-86
2022/09/16 05:56:30;;;;;;;0.00;0.00;;;11.40;99.90;;;;;;4998838;28;20517;-86
2022/09/16 05:58:59;;;;;;;0.00;0.00;;;11.30;99.90;;;;;;4997637;28;20451;-87
2022/09/16 06:01:31;;;;;;;0.00;0.00;;;11.20;99.90;;;;;;5004516;28;20498;-86
2022/09/16 06:04:04;;;;;;;0.00;0.00;;;11.20;99.90;;;;;;5004400;28;20462;-87
2022/09/16 06:06:34;;;;;;;0.00;0.00;;;11.10;99.90;;;;;;5006656;28;20211;-87
2022/09/16 06:09:08;;;;;;;0.00;0.00;;;11.10;99.90;;;;;;5026541;28;20939;-87
2022/09/16 06:11:38;;;;;;;0.00;0.00;;;11.20;99.90;;;;;;5031987;28;20437;-87
2022/09/16 06:14:07;;;;;;;0.00;0.00;;;11.20;99.90;;;;;;5035270;28;20454;-86
2022/09/16 06:16:35;;;;;;;0.00;0.00;;;11.30;99.90;;;;;;5021307;28;20474;-87
2022/09/16 06:19:09;;;;;;;0.00;0.00;;;11.30;99.90;;;;;;5007720;28;20443;-86
2022/09/16 06:21:37;;;;;;;0.00;0.00;;;11.30;99.90;;;;;;5000971;28;20479;-87
2022/09/16 06:24:07;;;;;;;0.00;0.00;;;11.30;99.90;;;;;;5020047;28;20858;-86
2022/09/16 06:26:36;;;;;;;0.00;0.00;;;11.30;99.90;;;;;;5020410;28;20485;-86
2022/09/16 06:29:14;;;;;;;0.00;0.00;;;11.40;99.90;;;;;;5006474;28;20439;-86
2022/09/16 06:31:43;;;;;;;0.00;0.00;;;11.40;99.90;;;;;;5003080;28;20475;-86
2022/09/16 06:34:16;;;;;;;0.00;0.00;;;11.40;99.90;;;;;;5004820;28;20489;-87
2022/09/16 06:36:44;;;;;;;0.00;0.00;;;11.50;99.90;;;;;;5001485;28;20453;-85
2022/09/16 06:39:14;;;;;;;0.00;0.00;;;11.60;99.90;;;;;;5000586;28;20455;-86
2022/09/16 06:41:42;;;;;;;0.00;0.00;;;11.60;99.90;;;;;;5000134;28;20471;-85
2022/09/16 06:44:10;;;;;;;0.00;0.00;;;11.60;99.90;;;;;;5012024;28;20474;-86
2022/09/16 06:46:41;;;;;;;0.00;0.00;;;11.70;99.90;;;;;;5001153;28;20466;-85
2022/09/16 06:49:11;;;;;;;0.00;0.00;;;11.80;99.90;;;;;;5017582;28;20462;-87
2022/09/16 06:51:42;;;;;;;0.00;0.00;;;11.80;99.90;;;;;;5021270;28;20470;-87
2022/09/16 06:54:10;;;;;;;0.00;0.00;;;11.80;99.90;;;;;;5020474;28;20458;-88
2022/09/16 06:56:40;;;;;;;0.00;0.00;;;11.80;99.90;;;;;;5022479;28;20454;-86
2022/09/16 06:59:13;;;;;;;0.00;0.00;;;11.80;99.90;;;;;;5008965;28;20485;-87
2022/09/16 07:01:44;;;;;;;0.00;0.00;;;11.90;99.90;;;;;;5007949;28;20476;-86
2022/09/16 07:04:13;;;;;;;0.00;0.00;;;11.90;99.90;;;;;;5020615;28;20450;-88
2022/09/16 07:06:42;;;;;;;0.00;0.00;;;11.90;99.90;;;;;;5016611;28;20501;-87
2022/09/16 07:09:31;;;;;;;0.00;0.00;;;12.00;99.90;;;;;;5006299;28;20467;-87
2022/09/16 07:12:00;;;;;;;0.00;0.00;;;12.00;99.90;;;;;;5017020;28;20457;-87
2022/09/16 07:14:31;;;;;;;0.00;0.00;;;12.10;99.90;;;;;;5007991;28;20442;-86
2022/09/16 07:16:59;;;;;;;0.00;0.00;;;12.00;99.90;;;;;;5016501;28;20430;-87
2022/09/16 07:19:28;;;;;;;0.00;0.00;;;12.20;99.90;;;;;;5003837;28;20451;-88
2022/09/16 07:21:57;;;;;;;0.00;0.00;;;12.30;99.90;;;;;;5013471;28;20466;-86
2022/09/16 07:24:25;;;;;;;0.00;0.00;;;12.50;99.90;;;;;;5011963;28;20451;-87
2022/09/16 07:26:53;;;;;;;0.00;0.00;;;12.60;99.90;;;;;;5003494;28;20584;-86
2022/09/16 07:29:21;;;;;;;0.00;0.00;;;12.70;99.90;;;;;;5017934;28;20929;-86
2022/09/16 07:31:49;;;;;;;0.00;0.00;;;12.70;99.90;;;;;;5023174;28;20847;-86
2022/09/16 07:34:17;;;;;;;0.00;0.00;;;12.60;99.90;;;;;;5005267;28;20446;-86
2022/09/16 07:36:47;;;;;;;0.00;0.00;;;12.40;99.90;;;;;;5005567;28;20461;-86
2022/09/16 07:39:19;;;;;;;0.00;0.00;;;12.40;99.90;;;;;;5021092;28;20508;-87
2022/09/16 07:41:48;;;;;;;0.00;0.00;;;12.30;99.90;;;;;;5001546;28;20533;-86
2022/09/16 07:44:18;;;;;;;0.00;0.00;;;12.40;99.90;;;;;;5011530;28;20452;-86
2022/09/16 07:46:46;;;;;;;0.00;0.00;;;12.40;99.90;;;;;;5000729;28;20482;-86
2022/09/16 07:49:15;;;;;;;0.00;0.00;;;12.40;99.90;;;;;;5000373;28;20541;-85
2022/09/16 07:51:43;;;;;;;0.00;0.00;;;12.50;99.90;;;;;;5003001;28;20470;-86
2022/09/16 07:54:13;;;;;;;0.00;0.00;;;12.70;99.90;;;;;;5020939;28;20449;-86
2022/09/16 07:56:44;;;;;;;0.00;0.00;;;12.90;99.90;;;;;;5019884;28;20556;-87
2022/09/16 07:59:14;;;;;;;0.00;0.00;;;13.10;99.90;;;;;;5019419;28;20454;-86
2022/09/16 08:01:46;;;;;;;0.00;0.00;;;13.30;99.90;;;;;;5019640;28;20527;-87
2022/09/16 08:04:14;;;;;;;0.00;0.00;;;13.50;99.90;;;;;;5019340;28;20454;-86
2022/09/16 08:06:42;;;;;;;0.00;0.00;;;13.60;99.90;;;;;;5018827;28;20564;-87
2022/09/16 08:09:10;;;;;;;0.00;0.00;;;13.70;99.90;;;;;;5020104;28;20458;-87
2022/09/16 08:12:02;;;;;;;0.00;0.00;;;13.60;99.90;;;;;;5019648;28;20449;-88
2022/09/16 08:14:31;;;;;;;0.00;0.00;;;13.40;99.90;;;;;;5019830;28;20452;-87
2022/09/16 08:16:59;;;;;;;0.00;0.00;;;13.30;99.90;;;;;;5020034;28;20462;-88
2022/09/16 08:19:27;;;;;;;0.00;0.00;;;13.10;99.90;;;;;;5037417;28;20430;-86
2022/09/16 08:21:55;;;;;;;0.00;0.00;;;13.10;99.90;;;;;;5021233;28;20987;-88
2022/09/16 08:24:23;;;;;;;0.00;0.00;;;13.10;99.90;;;;;;5003585;28;20435;-86
2022/09/16 08:26:51;;;;;;;0.00;0.00;;;13.10;99.90;;;;;;5000439;28;20485;-87
2022/09/16 08:29:21;;;;;;;0.00;0.00;;;13.20;99.90;;;;;;5000360;28;20538;-87
2022/09/16 08:31:52;;;;;;;0.00;0.00;;;13.20;99.90;;;;;;5000494;28;20498;-87
2022/09/16 08:34:20;;;;;;;0.00;0.00;;;13.30;99.90;;;;;;5000323;28;20547;-87
2022/09/16 08:36:48;;;;;;;0.00;0.00;;;13.60;99.90;;;;;;5000739;28;20478;-88
2022/09/16 08:39:16;;;;;;;0.00;0.00;;;13.70;99.90;;;;;;5000392;28;20574;-87
2022/09/16 08:41:59;;;;;;;0.00;0.00;;;13.80;99.90;;;;;;4999285;28;20470;-87
2022/09/16 08:44:36;;;;;;;0.00;0.00;;;13.90;99.90;;;;;;4999936;28;20833;-87
2022/09/16 08:47:11;;;;;;;0.00;0.00;;;13.80;99.90;;;;;;4999390;28;20505;-88
2022/09/16 08:49:43;;;;;;;0.00;0.00;;;13.80;99.90;;;;;;4993303;28;20408;-86
2022/09/16 08:52:23;;;;;;;0.00;0.00;;;13.70;99.90;;;;;;4978129;28;20490;-86
2022/09/16 08:54:53;;;;;;;0.00;0.00;;;13.80;99.90;;;;;;4982125;28;20443;-87
2022/09/16 08:57:29;;;;;;;0.00;0.00;;;13.80;99.90;;;;;;4997835;28;20856;-88
2022/09/16 09:00:03;;;;;;;0.00;0.00;;;13.80;99.90;;;;;;4998106;28;20497;-87
2022/09/16 09:02:44;;;;;;;0.00;0.00;;;13.80;99.90;;;;;;4997611;28;20511;-88
2022/09/16 09:05:18;;;;;;;0.00;0.00;;;13.80;99.90;;;;;;4998671;28;20478;-88
2022/09/16 09:07:56;;;;;;;0.00;0.00;;;13.80;99.90;;;;;;4999032;28;20466;-89
2022/09/16 09:10:30;;;;;;;0.00;0.00;;;13.70;99.90;;;;;;4999503;28;20477;-88
2022/09/16 09:13:09;;;;;;;0.00;0.00;;;13.60;99.90;;;;;;4999742;28;20443;-86
2022/09/16 09:15:52;;;;;;;0.00;0.00;;;13.30;99.90;;;;;;4997163;28;20478;-83
2022/09/16 09:18:38;;;;;;;0.00;0.00;;;13.30;99.90;;;;;;4999719;28;20498;-85
2022/09/16 09:21:21;;;;;;;0.00;0.00;;;13.30;99.90;;;;;;5007107;28;20466;-83
2022/09/16 09:24:22;;;;;;;0.00;0.00;;;13.30;99.90;;;;;;5009168;28;20455;-86
2022/09/16 09:26:57;;;;;;;0.00;0.00;;;13.40;99.90;;;;;;4997203;28;20985;-86
2022/09/16 09:29:46;;;;;;;0.00;0.00;;;13.50;99.90;;;;;;4996448;28;20434;-86
2022/09/16 09:32:23;;;;;;;0.00;0.00;;;13.60;99.90;;;;;;4997335;28;20424;-87
2022/09/16 09:35:04;;;;;;;0.00;0.00;;;13.80;99.90;;;;;;4997529;28;20454;-85
2022/09/16 09:37:53;;;;;;;0.00;0.00;;;13.80;99.90;;;;;;4997160;28;20441;-86
2022/09/16 09:40:29;;;;;;;0.00;0.00;;;13.70;99.90;;;;;;4996668;28;20462;-85
2022/09/16 09:43:06;;;;;;;0.00;0.00;;;13.70;99.90;;;;;;5000137;28;20466;-85
2022/09/16 09:45:36;;;;;;;0.00;0.00;;;13.60;99.90;;;;;;5001599;28;20446;-84
2022/09/16 09:51:36;;;;;;;0.00;0.00;;;13.70;99.90;;;;;;4984041;28;20470;-86
2022/09/16 09:54:15;;;;;;;0.00;0.00;;;13.80;99.90;;;;;;5003083;28;20486;-87
2022/09/16 09:56:45;;;;;;;0.00;0.00;;;13.80;99.90;;;;;;5003299;28;20506;-86
2022/09/16 09:59:42;;;;;;;0.00;0.00;;;13.80;99.90;;;;;;5004041;28;20961;-86
2022/09/16 10:02:16;;;;;;;0.00;0.00;;;13.90;99.90;;;;;;5002045;28;20425;-86
2022/09/16 10:04:46;;;;;;;0.00;0.00;;;14.00;99.90;;;;;;5003897;28;20457;-85
2022/09/16 10:07:17;;;;;;;0.00;0.00;;;14.10;99.90;;;;;;5003563;28;20419;-86
2022/09/16 10:09:49;;;;;;;0.00;0.00;;;14.20;99.90;;;;;;5003365;28;20454;-86
2022/09/16 10:12:27;;;;;;;0.00;0.00;;;14.30;99.90;;;;;;5002494;28;20533;-86
2022/09/16 10:14:59;;;;;;;0.00;0.00;;;14.50;99.90;;;;;;5003908;28;20423;-85
2022/09/16 10:17:32;;;;;;;0.00;0.00;;;14.80;99.90;;;;;;5004994;28;20526;-87
2022/09/16 10:20:22;;;;;;;0.00;0.00;;;15.00;99.90;;;;;;5003786;28;20988;-88
2022/09/16 10:23:00;;;;;;;0.00;0.00;;;15.10;99.90;;;;;;5007099;28;20459;-87
2022/09/16 10:25:35;;;;;;;0.00;0.00;;;15.10;99.90;;;;;;5016485;28;20518;-87
2022/09/16 10:28:18;;;;;;;0.00;0.00;;;15.20;99.90;;;;;;5005871;28;20554;-88
2022/09/16 10:30:55;;;;;;;0.00;0.00;;;15.20;99.90;;;;;;5002841;28;20473;-85
2022/09/16 10:33:33;;;;;;;0.00;0.00;;;15.20;99.90;;;;;;5002311;28;20418;-85
2022/09/16 10:36:37;;;;;;;0.00;0.00;;;15.40;99.90;;;;;;5001903;28;20438;-86
2022/09/16 10:39:31;;;;;;;0.00;0.00;;;15.50;99.90;;;;;;5002941;28;20962;-86
2022/09/16 10:42:21;;;;;;;0.00;0.00;;;15.60;99.90;;;;;;4997182;28;20469;-84
2022/09/16 10:44:59;;;;;;;0.00;0.00;;;15.70;99.90;;;;;;5003543;28;20474;-86
2022/09/16 10:47:35;;;;;;;0.00;0.00;;;15.80;99.90;;;;;;5003174;28;20442;-85
2022/09/16 10:50:05;;;;;;;0.00;0.00;;;15.90;99.90;;;;;;5002298;28;20501;-86
2022/09/16 10:52:42;;;;;;;0.00;0.00;;;16.10;99.90;;;;;;5001793;28;20457;-88
2022/09/16 10:55:21;;;;;;;0.00;0.00;;;16.20;99.90;;;;;;5003236;28;20459;-86
2022/09/16 10:57:49;;;;;;;0.00;0.00;;;16.30;99.90;;;;;;5002162;28;20854;-84
2022/09/16 11:00:19;;;;;;;0.00;0.00;;;16.30;99.90;;;;;;5000867;28;20451;-86
2022/09/16 11:03:18;;;;;;;0.00;0.00;;;16.40;99.90;;;;;;5002019;28;20466;-86
2022/09/16 11:05:56;;;;;;;0.00;0.00;;;16.50;99.90;;;;;;5001360;28;20456;-85
2022/09/16 11:08:45;;;;;;;0.00;0.00;;;16.70;99.90;;;;;;5001061;28;20502;-86
2022/09/16 11:11:19;;;;;;;0.00;0.00;;;16.90;99.90;;;;;;5001382;28;20963;-86
2022/09/16 11:13:57;;;;;;;0.00;0.00;;;17.10;99.90;;;;;;5000686;28;20458;-86
2022/09/16 11:17:04;;;;;;;0.00;0.00;;;17.30;99.90;;;;;;5001042;28;20547;-86
2022/09/16 11:19:48;;;;;;;0.00;0.00;;;17.40;99.90;;;;;;5003287;28;20505;-87
2022/09/16 11:22:27;;;;;;;0.00;0.00;;;17.40;99.90;;;;;;5002267;28;20462;-85
2022/09/16 11:25:22;;;;;;;0.00;0.00;;;17.30;99.90;;;;;;5004484;28;20490;-85
2022/09/16 11:27:57;;;;;;;0.00;0.00;;;16.60;99.90;;;;;;5013996;28;20439;-84
2022/09/16 11:30:25;;;;;;;0.00;0.00;;;15.90;99.90;;;;;;5009510;28;20549;-85
2022/09/16 11:33:09;;;;;;;0.00;0.00;;;15.30;99.90;;;;;;5001583;28;20435;-85
2022/09/16 11:35:59;;;;;;;0.00;0.00;;;14.80;99.90;;;;;;5000350;28;20446;-85
2022/09/16 11:38:38;;;;;;;0.00;0.00;;;14.40;99.90;;;;;;4999680;28;20443;-85
2022/09/16 11:41:21;;;;;;;0.00;0.00;;;14.10;99.90;;;;;;5002422;28;20467;-84
2022/09/16 11:44:11;;;;;;;0.00;0.00;;;13.80;99.90;;;;;;4999629;28;20475;-84
2022/09/16 11:46:48;;;;;;;0.00;0.00;;;13.60;99.90;;;;;;5000847;28;20427;-85
2022/09/16 11:49:30;;;;;;;0.00;0.00;;;13.50;99.90;;;;;;5000758;28;20482;-85
2022/09/16 11:52:14;;;;;;;0.00;0.00;;;13.40;99.90;;;;;;5000887;28;20442;-85
2022/09/16 11:55:01;;;;;;;0.00;0.00;;;13.40;99.90;;;;;;5000160;28;20482;-84
2022/09/16 11:57:35;;;;;;;0.00;0.00;;;13.40;99.90;;;;;;5000230;28;20449;-87
2022/09/16 12:00:11;;;;;;;0.00;0.00;;;13.50;99.90;;;;;;4992487;28;20487;-86
2022/09/16 12:02:46;;;;;;;0.00;0.00;;;13.70;99.90;;;;;;4995720;28;20949;-85
2022/09/16 12:05:18;;;;;;;0.00;0.00;;;13.90;99.90;;;;;;5005889;28;20458;-86
2022/09/16 12:07:54;;;;;;;0.00;0.00;;;14.10;99.90;;;;;;5006973;28;20451;-85
2022/09/16 12:10:25;;;;;;;0.00;0.00;;;14.30;99.90;;;;;;5006476;28;20487;-84
2022/09/16 12:13:00;;;;;;;0.00;0.00;;;14.70;99.90;;;;;;5004552;28;20813;-91
2022/09/16 12:15:33;;;;;;;0.00;0.00;;;15.00;99.90;;;;;;4991939;28;20459;-86
2022/09/16 12:18:03;;;;;;;0.00;0.00;;;15.30;99.90;;;;;;4985627;28;20444;-87
2022/09/16 12:20:36;;;;;;;0.00;0.00;;;15.70;99.90;;;;;;4987132;28;20873;-87
2022/09/16 12:23:12;;;;;;;0.00;0.00;;;16.00;99.90;;;;;;4986242;28;20468;-88
2022/09/16 12:25:44;;;;;;;0.00;0.00;;;16.30;99.90;;;;;;4991435;28;20451;-87
2022/09/16 12:28:19;;;;;;;0.00;0.00;;;16.30;99.90;;;;;;4985122;28;20503;-86
2022/09/16 12:30:53;;;;;;;0.00;0.00;;;15.90;99.90;;;;;;5010851;28;20479;-87
2022/09/16 12:33:25;;;;;;;0.00;0.00;;;15.50;99.90;;;;;;5013218;28;20442;-90
2022/09/16 12:36:27;;;;;;;0.00;0.00;;;15.00;99.90;;;;;;4991547;28;20460;-88
2022/09/16 12:39:12;;;;;;;0.00;0.00;;;14.50;99.90;;;;;;4976824;28;20440;-85
2022/09/16 12:41:55;;;;;;;0.00;0.00;;;14.10;99.90;;;;;;4981737;28;20460;-87
2022/09/16 12:44:49;;;;;;;0.00;0.00;;;14.00;99.90;;;;;;4979756;28;20918;-84
2022/09/16 12:47:34;;;;;;;0.00;0.00;;;13.90;99.90;;;;;;4979889;28;20714;-86
2022/09/16 12:53:48;;;;;;;0.00;0.00;;;13.80;99.90;;;;;;4977368;28;20504;-85
2022/09/16 12:56:48;;;;;;;0.00;0.00;;;13.90;99.90;;;;;;4978338;28;20455;-86
2022/09/16 12:59:37;;;;;;;0.00;0.00;;;14.10;99.90;;;;;;4979915;28;20443;-86
2022/09/16 13:02:12;;;;;;;0.00;0.00;;;14.20;99.90;;;;;;4988748;28;20817;-90
2022/09/16 13:04:44;;;;;;;0.00;0.00;;;14.00;99.90;;;;;;4990454;28;20456;-88
2022/09/16 13:07:24;;;;;;;0.00;0.00;;;13.80;99.90;;;;;;4979285;28;20803;-84
2022/09/16 13:10:01;;;;;;;0.00;0.00;;;13.80;99.90;;;;;;4989589;28;20486;-86
2022/09/16 13:12:29;;;;;;;0.00;0.00;;;13.80;99.90;;;;;;4989296;28;20431;-86
2022/09/16 13:15:25;;;;;;;0.00;0.00;;;13.80;99.90;;;;;;4984217;28;20919;-87
2022/09/16 13:17:54;;;;;;;0.00;0.00;;;13.90;99.90;;;;;;4997102;28;20455;-84
2022/09/16 13:20:29;;;;;;;0.00;0.00;;;14.00;99.90;;;;;;4978661;28;20467;-86
2022/09/16 13:23:05;;;;;;;0.00;0.00;;;14.00;99.90;;;;;;4984047;28;20957;-85
2022/09/16 13:25:43;;;;;;;0.00;0.00;;;14.00;99.90;;;;;;4978953;28;20971;-87
2022/09/16 13:28:27;;;;;;;0.00;0.00;;;13.90;99.90;;;;;;4982471;28;20432;-86
2022/09/16 13:30:56;;;;;;;0.00;0.00;;;13.90;99.90;;;;;;4979858;28;20543;-85
2022/09/16 13:33:29;;;;;;;0.00;0.00;;;13.90;99.90;;;;;;4982061;28;20990;-85